createdAt,value
2022-12-18T00:01:37.690Z,-1.30
2022-12-18T00:04:09.018Z,-1.40
2022-12-18T00:06:39.775Z,-1.30
2022-12-18T00:09:07.930Z,-1.30
2022-12-18T00:11:34.663Z,-1.40
2022-12-18T00:14:02.287Z,-1.50
2022-12-18T00:16:31.870Z,-1.40
2022-12-18T00:18:59.783Z,-1.40
2022-12-18T00:21:28.848Z,-1.50
2022-12-18T00:23:56.733Z,-1.60
2022-12-18T00:26:29.964Z,-1.60
2022-12-18T00:29:20.411Z,-1.60
2022-12-18T00:31:47.297Z,-1.50
2022-12-18T00:34:14.580Z,-1.50
2022-12-18T00:36:42.486Z,-1.50
2022-12-18T00:39:11.333Z,-1.50
2022-12-18T00:41:56.481Z,-1.50
2022-12-18T00:44:23.317Z,-1.50
2022-12-18T00:46:50.326Z,-1.50
2022-12-18T00:49:36.227Z,-1.60
2022-12-18T00:52:02.974Z,-1.60
2022-12-18T00:54:29.792Z,-1.60
2022-12-18T00:56:57.803Z,-1.60
2022-12-18T00:59:24.559Z,-1.70
2022-12-18T01:01:51.519Z,-1.70
2022-12-18T01:04:18.390Z,-1.60
2022-12-18T01:06:45.103Z,-1.70
2022-12-18T01:09:11.849Z,-1.60
2022-12-18T01:11:40.594Z,-1.50
2022-12-18T01:14:09.812Z,-1.50
2022-12-18T01:16:36.638Z,-1.60
2022-12-18T01:19:03.459Z,-1.60
2022-12-18T01:21:30.191Z,-1.60
2022-12-18T01:23:58.406Z,-1.60
2022-12-18T01:26:30.437Z,-1.60
2022-12-18T01:28:58.919Z,-1.70
2022-12-18T01:31:33.080Z,-1.60
2022-12-18T01:34:03.377Z,-1.70
2022-12-18T01:36:39.831Z,-1.70
2022-12-18T01:39:12.417Z,-1.70
2022-12-18T01:41:58.283Z,-1.70
2022-12-18T01:45:05.710Z,-1.70
2022-12-18T01:47:46.450Z,-1.70
2022-12-18T01:50:46.108Z,-1.70
2022-12-18T01:53:19.207Z,-1.90
2022-12-18T01:55:52.577Z,-1.80
2022-12-18T01:58:24.122Z,-1.80
2022-12-18T02:00:55.991Z,-1.70
2022-12-18T02:03:22.959Z,-1.70
2022-12-18T02:06:11.474Z,-1.80
2022-12-18T02:09:08.742Z,-1.90
2022-12-18T02:12:17.632Z,-1.90
2022-12-18T02:15:05.559Z,-1.90
2022-12-18T02:17:40.787Z,-1.80
2022-12-18T02:20:29.198Z,-1.90
2022-12-18T02:23:18.176Z,-1.90
2022-12-18T02:26:15.280Z,-1.90
2022-12-18T02:28:58.157Z,-1.90
2022-12-18T02:31:32.424Z,-1.90
2022-12-18T02:34:05.618Z,-1.90
2022-12-18T02:36:35.314Z,-1.90
2022-12-18T02:39:08.405Z,-1.90
2022-12-18T02:41:38.659Z,-1.90
2022-12-18T02:44:15.882Z,-1.90
2022-12-18T02:46:53.143Z,-1.90
2022-12-18T02:49:42.666Z,-1.90
2022-12-18T02:52:43.312Z,-1.90
2022-12-18T02:55:34.949Z,-1.90
2022-12-18T02:58:19.433Z,-1.90
2022-12-18T03:01:16.167Z,-1.90
2022-12-18T03:03:56.285Z,-2.00
2022-12-18T03:06:51.060Z,-2.00
2022-12-18T03:09:36.538Z,-2.00
2022-12-18T03:12:24.217Z,-2.00
2022-12-18T03:15:17.798Z,-2.10
2022-12-18T03:18:03.882Z,-2.10
2022-12-18T03:20:35.219Z,-2.10
2022-12-18T03:23:26.123Z,-2.10
2022-12-18T03:26:04.357Z,-2.20
2022-12-18T03:28:40.494Z,-2.20
2022-12-18T03:31:12.213Z,-2.20
2022-12-18T03:33:47.948Z,-2.30
2022-12-18T03:36:15.866Z,-2.20
2022-12-18T03:38:42.838Z,-2.30
2022-12-18T03:41:33.350Z,-2.30
2022-12-18T03:44:21.436Z,-2.30
2022-12-18T03:47:30.066Z,-2.30
2022-12-18T03:50:02.606Z,-2.40
2022-12-18T03:52:40.663Z,-2.40
2022-12-18T03:55:10.093Z,-2.30
2022-12-18T03:57:38.766Z,-2.40
2022-12-18T04:00:12.882Z,-2.40
2022-12-18T04:02:46.828Z,-2.40
2022-12-18T04:05:15.947Z,-2.40
2022-12-18T04:07:46.604Z,-2.50
2022-12-18T04:10:16.079Z,-2.50
2022-12-18T04:12:43.017Z,-2.50
2022-12-18T04:15:21.149Z,-2.50
2022-12-18T04:17:51.049Z,-2.50
2022-12-18T04:20:18.788Z,-2.60
2022-12-18T04:22:45.555Z,-2.50
2022-12-18T04:25:13.213Z,-2.70
2022-12-18T04:27:40.092Z,-2.60
2022-12-18T04:30:07.766Z,-2.70
2022-12-18T04:32:35.666Z,-2.70
2022-12-18T04:35:03.034Z,-2.70
2022-12-18T04:37:29.792Z,-2.70
2022-12-18T04:39:56.646Z,-2.70
2022-12-18T04:42:23.398Z,-2.70
2022-12-18T04:44:50.123Z,-2.70
2022-12-18T04:47:17.965Z,-2.80
2022-12-18T04:49:44.653Z,-2.80
2022-12-18T04:52:11.364Z,-2.80
2022-12-18T04:54:38.101Z,-2.80
2022-12-18T04:57:04.880Z,-2.80
2022-12-18T04:59:31.662Z,-2.80
2022-12-18T05:01:58.502Z,-2.80
2022-12-18T05:04:25.358Z,-2.70
2022-12-18T05:06:52.169Z,-2.80
2022-12-18T05:09:18.899Z,-2.80
2022-12-18T05:11:47.575Z,-2.80
2022-12-18T05:14:14.398Z,-2.80
2022-12-18T05:16:41.327Z,-2.80
2022-12-18T05:19:08.116Z,-2.90
2022-12-18T05:21:34.940Z,-2.90
2022-12-18T05:24:01.662Z,-2.90
2022-12-18T05:26:28.400Z,-2.90
2022-12-18T05:28:59.290Z,-2.90
2022-12-18T05:31:28.593Z,-2.90
2022-12-18T05:33:55.341Z,-3.00
2022-12-18T05:36:22.072Z,-3.00
2022-12-18T05:38:49.876Z,-2.90
2022-12-18T05:41:16.666Z,-3.00
2022-12-18T05:43:44.344Z,-3.00
2022-12-18T05:46:18.899Z,-2.90
2022-12-18T05:48:46.284Z,-3.00
2022-12-18T05:51:17.289Z,-3.00
2022-12-18T05:53:44.759Z,-3.00
2022-12-18T05:56:19.411Z,-3.00
2022-12-18T05:58:47.394Z,-3.00
2022-12-18T06:01:22.639Z,-3.10
2022-12-18T06:03:50.747Z,-3.10
2022-12-18T06:06:24.425Z,-3.10
2022-12-18T06:08:52.417Z,-3.00
2022-12-18T06:11:23.914Z,-3.00
2022-12-18T06:13:58.193Z,-3.10
2022-12-18T06:16:26.857Z,-3.20
2022-12-18T06:18:53.812Z,-3.20
2022-12-18T06:21:20.770Z,-3.10
2022-12-18T06:23:49.782Z,-3.20
2022-12-18T06:26:16.783Z,-3.20
2022-12-18T06:28:46.089Z,-3.20
2022-12-18T06:31:13.164Z,-3.10
2022-12-18T06:33:40.742Z,-3.20
2022-12-18T06:36:14.302Z,-3.20
2022-12-18T06:38:44.831Z,-3.20
2022-12-18T06:41:18.701Z,-3.20
2022-12-18T06:43:45.791Z,-3.20
2022-12-18T06:46:13.768Z,-3.20
2022-12-18T06:48:41.121Z,-3.30
2022-12-18T06:51:08.295Z,-3.30
2022-12-18T06:53:35.429Z,-3.30
2022-12-18T06:56:11.093Z,-3.30
2022-12-18T06:58:43.326Z,-3.40
2022-12-18T07:01:12.977Z,-3.40
2022-12-18T07:03:41.998Z,-3.30
2022-12-18T07:06:17.396Z,-3.30
2022-12-18T07:08:44.981Z,-3.40
2022-12-18T07:11:11.969Z,-3.40
2022-12-18T07:13:39.654Z,-3.40
2022-12-18T07:16:18.386Z,-3.40
2022-12-18T07:18:48.145Z,-3.40
2022-12-18T07:21:19.664Z,-3.40
2022-12-18T07:23:48.712Z,-3.40
2022-12-18T07:26:19.740Z,-3.40
2022-12-18T07:28:47.562Z,-3.40
2022-12-18T07:31:22.163Z,-3.30
2022-12-18T07:33:51.062Z,-3.30
2022-12-18T07:36:18.221Z,-3.30
2022-12-18T07:38:49.167Z,-3.30
2022-12-18T07:41:16.731Z,-3.30
2022-12-18T07:43:46.083Z,-3.40
2022-12-18T07:46:15.090Z,-3.40
2022-12-18T07:48:44.321Z,-3.40
2022-12-18T07:51:13.993Z,-3.40
2022-12-18T07:53:42.055Z,-3.40
2022-12-18T07:56:30.019Z,-3.50
2022-12-18T07:58:59.314Z,-3.50
2022-12-18T08:01:26.634Z,-3.40
2022-12-18T08:03:53.657Z,-3.40
2022-12-18T08:06:23.852Z,-3.40
2022-12-18T08:08:56.744Z,-3.40
2022-12-18T08:11:27.142Z,-3.50
2022-12-18T08:13:54.345Z,-3.30
2022-12-18T08:16:24.399Z,-3.40
2022-12-18T08:18:54.747Z,-3.30
2022-12-18T08:21:29.262Z,-3.30
2022-12-18T08:24:00.929Z,-3.30
2022-12-18T08:26:31.902Z,-3.30
2022-12-18T08:29:01.241Z,-3.30
2022-12-18T08:31:30.450Z,-3.30
2022-12-18T08:33:57.983Z,-3.20
2022-12-18T08:36:26.207Z,-3.20
2022-12-18T08:38:54.483Z,-3.20
2022-12-18T08:41:21.786Z,-3.10
2022-12-18T08:44:08.630Z,-3.10
2022-12-18T08:46:41.534Z,-3.00
2022-12-18T08:49:12.135Z,-3.00
2022-12-18T08:51:40.104Z,-3.00
2022-12-18T08:54:08.162Z,-3.00
2022-12-18T08:56:36.235Z,-3.00
2022-12-18T08:59:03.817Z,-3.00
2022-12-18T09:01:31.040Z,-3.00
2022-12-18T09:03:58.793Z,-3.00
2022-12-18T09:06:28.270Z,-2.90
2022-12-18T09:08:54.998Z,-3.00
2022-12-18T09:11:28.390Z,-2.90
2022-12-18T09:13:58.763Z,-2.90
2022-12-18T09:16:32.295Z,-2.80
2022-12-18T09:19:01.101Z,-2.80
2022-12-18T09:21:36.942Z,-2.80
2022-12-18T09:24:08.892Z,-2.70
2022-12-18T09:26:36.457Z,-2.70
2022-12-18T09:29:05.178Z,-2.70
2022-12-18T09:31:31.985Z,-2.70
2022-12-18T09:33:58.767Z,-2.60
2022-12-18T09:36:25.556Z,-2.60
2022-12-18T09:38:52.323Z,-2.50
2022-12-18T09:41:47.466Z,-2.60
2022-12-18T09:44:47.358Z,-2.60
2022-12-18T09:47:38.668Z,-2.60
2022-12-18T09:50:24.724Z,-2.40
2022-12-18T09:52:59.213Z,-2.40
2022-12-18T09:55:37.499Z,-2.30
2022-12-18T09:58:24.092Z,-2.40
2022-12-18T10:00:56.782Z,-2.50
2022-12-18T10:03:23.936Z,-2.30
2022-12-18T10:06:23.756Z,-2.40
2022-12-18T10:09:29.806Z,-2.20
2022-12-18T10:12:33.690Z,-2.30
2022-12-18T10:15:18.728Z,-2.20
2022-12-18T10:18:22.239Z,-2.20
2022-12-18T10:20:57.030Z,-2.20
2022-12-18T10:23:52.298Z,-2.10
2022-12-18T10:26:19.087Z,-2.20
2022-12-18T10:28:47.083Z,-2.10
2022-12-18T10:31:22.079Z,-2.10
2022-12-18T10:33:54.634Z,-2.00
2022-12-18T10:36:24.731Z,-2.00
2022-12-18T10:38:52.380Z,-2.00
2022-12-18T10:41:19.959Z,-2.00
2022-12-18T10:43:49.271Z,-2.00
2022-12-18T10:46:21.320Z,-2.00
2022-12-18T10:48:48.073Z,-1.90
2022-12-18T10:51:23.985Z,-1.80
2022-12-18T10:54:13.412Z,-1.80
2022-12-18T10:56:40.791Z,-1.80
2022-12-18T10:59:18.715Z,-1.70
2022-12-18T11:01:55.878Z,-1.80
2022-12-18T11:04:30.700Z,-1.60
2022-12-18T11:07:03.903Z,-1.70
2022-12-18T11:09:39.633Z,-1.70
2022-12-18T11:12:29.552Z,-1.60
2022-12-18T11:15:00.890Z,-1.50
2022-12-18T11:17:35.871Z,-1.50
2022-12-18T11:20:32.615Z,-1.50
2022-12-18T11:23:07.341Z,-1.40
2022-12-18T11:25:35.947Z,-1.40
2022-12-18T11:28:34.927Z,-1.40
2022-12-18T11:31:26.140Z,-1.40
2022-12-18T11:34:33.985Z,-1.20
2022-12-18T11:37:06.665Z,-1.10
2022-12-18T11:39:52.547Z,-1.30
2022-12-18T11:42:36.682Z,-1.20
2022-12-18T11:45:25.664Z,-1.20
2022-12-18T11:48:22.732Z,-1.20
2022-12-18T11:50:57.186Z,-1.20
2022-12-18T11:53:27.639Z,-1.20
2022-12-18T11:56:27.295Z,-1.20
2022-12-18T11:59:47.879Z,-1.10
2022-12-18T12:02:29.692Z,-1.10
2022-12-18T12:05:14.542Z,-1.10
2022-12-18T12:08:00.210Z,-1.00
2022-12-18T12:11:00.690Z,-1.10
2022-12-18T12:13:44.890Z,-1.00
2022-12-18T12:16:44.029Z,-0.90
2022-12-18T12:19:28.651Z,-0.90
2022-12-18T12:22:17.492Z,-0.90
2022-12-18T12:25:12.307Z,-0.90
2022-12-18T12:28:14.383Z,-0.80
2022-12-18T12:31:28.430Z,-0.80
2022-12-18T12:34:13.906Z,-0.70
2022-12-18T12:36:59.597Z,-0.70
2022-12-18T12:39:43.383Z,-0.60
2022-12-18T12:42:58.956Z,-0.70
2022-12-18T12:45:42.009Z,-0.70
2022-12-18T12:48:24.729Z,-0.60
2022-12-18T12:50:52.504Z,-0.60
2022-12-18T12:53:35.283Z,-0.60
2022-12-18T12:56:05.305Z,-0.60
2022-12-18T12:59:02.693Z,-0.50
2022-12-18T13:01:56.496Z,-0.50
2022-12-18T13:04:54.311Z,-0.60
2022-12-18T13:07:46.983Z,-0.50
2022-12-18T13:10:23.780Z,-0.60
2022-12-18T13:13:23.570Z,-0.50
2022-12-18T13:16:09.143Z,-0.60
2022-12-18T13:18:36.797Z,-0.40
2022-12-18T13:21:24.847Z,-0.40
2022-12-18T13:23:52.251Z,-0.50
2022-12-18T13:26:23.255Z,-0.40
2022-12-18T13:28:58.520Z,-0.40
2022-12-18T13:31:40.969Z,-0.40
2022-12-18T13:34:26.790Z,-0.40
2022-12-18T13:37:17.646Z,-0.40
2022-12-18T13:39:44.577Z,-0.30
2022-12-18T13:42:31.474Z,-0.40
2022-12-18T13:44:59.508Z,-0.40
2022-12-18T13:47:41.112Z,-0.30
2022-12-18T13:50:35.421Z,-0.40
2022-12-18T13:53:06.039Z,-0.40
2022-12-18T13:55:33.509Z,-0.40
2022-12-18T13:58:13.048Z,-0.30
2022-12-18T14:00:44.186Z,-0.30
2022-12-18T14:03:41.615Z,-0.30
2022-12-18T14:06:13.993Z,-0.30
2022-12-18T14:08:45.048Z,-0.20
2022-12-18T14:11:23.971Z,-0.30
2022-12-18T14:13:54.700Z,-0.30
2022-12-18T14:16:22.832Z,-0.20
2022-12-18T14:18:58.144Z,-0.20
2022-12-18T14:21:36.002Z,-0.20
2022-12-18T14:24:21.123Z,-0.20
2022-12-18T14:26:50.855Z,-0.20
2022-12-18T14:29:32.103Z,-0.20
2022-12-18T14:32:18.657Z,-0.20
2022-12-18T14:34:51.834Z,-0.20
2022-12-18T14:37:25.093Z,-0.20
2022-12-18T14:40:07.185Z,-0.20
2022-12-18T14:42:38.026Z,-0.10
2022-12-18T14:45:45.546Z,-0.10
2022-12-18T14:48:12.754Z,-0.20
2022-12-18T14:50:41.083Z,-0.20
2022-12-18T14:53:34.322Z,-0.20
2022-12-18T14:56:02.512Z,-0.10
2022-12-18T14:58:29.810Z,-0.20
2022-12-18T15:00:56.660Z,-0.20
2022-12-18T15:03:23.773Z,-0.20
2022-12-18T15:05:51.828Z,-0.10
2022-12-18T15:08:38.272Z,-0.20
2022-12-18T15:11:29.138Z,-0.10
2022-12-18T15:13:55.968Z,-0.20
2022-12-18T15:16:23.085Z,-0.10
2022-12-18T15:18:49.955Z,-0.10
2022-12-18T15:21:21.873Z,-0.20
2022-12-18T15:23:52.297Z,-0.20
2022-12-18T15:26:22.190Z,-0.10
2022-12-18T15:28:59.334Z,-0.10
2022-12-18T15:31:38.014Z,-0.20
2022-12-18T15:34:22.309Z,-0.10
2022-12-18T15:36:51.121Z,-0.10
2022-12-18T15:39:17.927Z,-0.10
2022-12-18T15:42:05.815Z,-0.10
2022-12-18T15:44:32.926Z,-0.10
2022-12-18T15:47:00.011Z,-0.10
2022-12-18T15:49:27.041Z,-0.10
2022-12-18T15:51:58.938Z,-0.10
2022-12-18T15:54:44.229Z,-0.10
2022-12-18T15:57:24.762Z,-0.10
2022-12-18T15:59:57.714Z,-0.10
2022-12-18T16:02:25.532Z,-0.10
2022-12-18T16:04:54.451Z,-0.10
2022-12-18T16:07:25.582Z,0.00
2022-12-18T16:09:52.982Z,0.00
2022-12-18T16:12:25.058Z,0.00
2022-12-18T16:14:51.929Z,-0.10
2022-12-18T16:17:19.220Z,0.00
2022-12-18T16:19:46.469Z,0.00
2022-12-18T16:22:24.844Z,0.00
2022-12-18T16:24:54.351Z,0.00
2022-12-18T16:27:24.482Z,0.00
2022-12-18T16:29:51.988Z,-0.10
2022-12-18T16:32:22.470Z,0.10
2022-12-18T16:34:50.427Z,0.00
2022-12-18T16:37:17.619Z,0.00
2022-12-18T16:39:45.397Z,0.00
2022-12-18T16:42:21.346Z,0.00
2022-12-18T16:44:50.081Z,0.00
2022-12-18T16:47:18.105Z,0.00
2022-12-18T16:49:46.154Z,-0.10
2022-12-18T16:52:13.723Z,0.00
2022-12-18T16:54:40.504Z,0.00
2022-12-18T16:57:07.311Z,0.00
2022-12-18T16:59:37.251Z,0.00
2022-12-18T17:02:19.214Z,0.00
2022-12-18T17:04:53.159Z,0.10
2022-12-18T17:07:20.000Z,0.10
2022-12-18T17:09:46.877Z,0.10
2022-12-18T17:12:13.594Z,0.10
2022-12-18T17:14:40.411Z,0.10
2022-12-18T17:17:23.722Z,0.10
2022-12-18T17:19:52.446Z,0.10
2022-12-18T17:22:21.727Z,0.10
2022-12-18T17:24:48.505Z,0.10
2022-12-18T17:27:15.634Z,0.10
2022-12-18T17:29:47.284Z,0.10
2022-12-18T17:32:16.778Z,0.20
2022-12-18T17:34:43.748Z,0.10
2022-12-18T17:37:10.510Z,0.20
2022-12-18T17:39:37.587Z,0.10
2022-12-18T17:42:05.302Z,0.10
2022-12-18T17:44:34.239Z,0.20
2022-12-18T17:47:01.546Z,0.20
2022-12-18T17:49:28.524Z,0.10
2022-12-18T17:51:55.248Z,0.10
2022-12-18T17:54:22.031Z,0.20
2022-12-18T17:56:48.738Z,0.20
2022-12-18T17:59:15.490Z,0.20
2022-12-18T18:01:45.052Z,0.20
2022-12-18T18:04:13.156Z,0.20
2022-12-18T18:06:40.435Z,0.20
2022-12-18T18:09:15.629Z,0.20
2022-12-18T18:12:06.489Z,0.20
2022-12-18T18:14:33.570Z,0.20
2022-12-18T18:17:04.835Z,0.30
2022-12-18T18:19:33.439Z,0.20
2022-12-18T18:22:01.726Z,0.20
2022-12-18T18:24:31.249Z,0.20
2022-12-18T18:27:01.197Z,0.20
2022-12-18T18:29:32.165Z,0.20
2022-12-18T18:31:59.795Z,0.30
2022-12-18T18:34:30.904Z,0.30
2022-12-18T18:37:02.063Z,0.30
2022-12-18T18:39:29.679Z,0.30
2022-12-18T18:41:56.677Z,0.30
2022-12-18T18:44:26.161Z,0.40
2022-12-18T18:46:58.011Z,0.40
2022-12-18T18:49:27.655Z,0.40
2022-12-18T18:51:57.221Z,0.40
2022-12-18T18:54:25.791Z,0.40
2022-12-18T18:59:39.641Z,0.40
2022-12-18T19:02:09.240Z,0.50
2022-12-18T19:04:36.624Z,0.50
2022-12-18T19:07:09.184Z,0.40
2022-12-18T19:09:36.261Z,0.50
2022-12-18T19:12:22.758Z,0.50
2022-12-18T19:14:49.928Z,0.50
2022-12-18T19:17:16.735Z,0.50
2022-12-18T19:19:43.687Z,0.50
2022-12-18T19:22:10.950Z,0.50
2022-12-18T19:24:37.934Z,0.50
2022-12-18T19:27:05.102Z,0.50
2022-12-18T19:29:31.998Z,0.60
2022-12-18T19:31:58.992Z,0.50
2022-12-18T19:34:26.024Z,0.60
2022-12-18T19:36:57.972Z,0.50
2022-12-18T19:39:26.723Z,0.60
2022-12-18T19:41:53.652Z,0.60
2022-12-18T19:44:21.055Z,0.50
2022-12-18T19:46:51.390Z,0.60
2022-12-18T19:49:18.412Z,0.50
2022-12-18T19:51:45.992Z,0.60
2022-12-18T19:54:17.418Z,0.60
2022-12-18T19:56:45.853Z,0.60
2022-12-18T19:59:13.364Z,0.50
2022-12-18T20:01:41.033Z,0.60
2022-12-18T20:04:08.078Z,0.50
2022-12-18T20:06:47.996Z,0.60
2022-12-18T20:09:15.450Z,0.60
2022-12-18T20:11:42.860Z,0.60
2022-12-18T20:14:16.860Z,0.60
2022-12-18T20:16:49.593Z,0.50
2022-12-18T20:19:17.056Z,0.60
2022-12-18T20:21:44.335Z,0.60
2022-12-18T20:24:11.174Z,0.60
2022-12-18T20:26:38.250Z,0.50
2022-12-18T20:29:05.088Z,0.60
2022-12-18T20:31:34.509Z,0.60
2022-12-18T20:34:03.545Z,0.60
2022-12-18T20:36:31.921Z,0.60
2022-12-18T20:39:02.683Z,0.60
2022-12-18T20:41:37.212Z,0.60
2022-12-18T20:44:23.246Z,0.60
2022-12-18T20:46:57.490Z,0.60
2022-12-18T20:49:26.401Z,0.60
2022-12-18T20:51:59.003Z,0.50
2022-12-18T20:54:27.210Z,0.60
2022-12-18T20:56:55.070Z,0.70
2022-12-18T20:59:23.050Z,0.60
2022-12-18T21:01:55.508Z,0.60
2022-12-18T21:04:23.636Z,0.60
2022-12-18T21:06:55.284Z,0.60
2022-12-18T21:09:27.909Z,0.70
2022-12-18T21:12:23.831Z,0.60
2022-12-18T21:14:50.631Z,0.70
2022-12-18T21:17:17.436Z,0.70
2022-12-18T21:19:44.127Z,0.60
2022-12-18T21:22:14.595Z,0.60
2022-12-18T21:24:41.349Z,0.60
2022-12-18T21:27:08.135Z,0.60
2022-12-18T21:29:35.931Z,0.60
2022-12-18T21:32:04.340Z,0.70
2022-12-18T21:34:33.069Z,0.70
2022-12-18T21:37:01.592Z,0.60
2022-12-18T21:39:32.913Z,0.70
2022-12-18T21:42:19.074Z,0.80
2022-12-18T21:44:48.976Z,0.70
2022-12-18T21:47:21.677Z,0.70
2022-12-18T21:49:53.872Z,0.80
2022-12-18T21:52:31.545Z,0.80
2022-12-18T21:55:19.522Z,0.80
2022-12-18T21:57:46.306Z,0.80
2022-12-18T22:00:18.510Z,0.80
2022-12-18T22:02:47.029Z,0.80
2022-12-18T22:05:13.957Z,0.90
2022-12-18T22:07:40.803Z,0.90
2022-12-18T22:10:11.510Z,0.90
2022-12-18T22:12:44.517Z,0.80
2022-12-18T22:15:21.330Z,0.90
2022-12-18T22:17:54.145Z,0.80
2022-12-18T22:20:28.437Z,0.90
2022-12-18T22:22:56.967Z,0.90
2022-12-18T22:25:23.727Z,0.90
2022-12-18T22:28:08.781Z,0.90
2022-12-18T22:30:36.161Z,0.90
2022-12-18T22:33:03.581Z,0.90
2022-12-18T22:35:30.550Z,0.90
2022-12-18T22:37:59.836Z,0.90
2022-12-18T22:40:27.759Z,0.90
2022-12-18T22:42:55.934Z,1.00
2022-12-18T22:45:24.095Z,0.90
2022-12-18T22:47:51.092Z,0.90
2022-12-18T22:50:20.012Z,0.90
2022-12-18T22:52:46.784Z,1.00
2022-12-18T22:55:13.529Z,1.00
2022-12-18T22:57:40.276Z,1.00
2022-12-18T23:00:11.635Z,1.00
2022-12-18T23:02:38.639Z,1.00
2022-12-18T23:05:08.685Z,1.00
2022-12-18T23:07:35.506Z,1.00
2022-12-18T23:10:02.216Z,1.00
2022-12-18T23:12:29.011Z,1.00
2022-12-18T23:14:56.052Z,1.10
2022-12-18T23:17:25.493Z,1.10
2022-12-18T23:19:52.227Z,1.00
2022-12-18T23:22:18.946Z,1.10
2022-12-18T23:24:47.169Z,1.10
2022-12-18T23:27:13.968Z,1.10
2022-12-18T23:29:40.792Z,1.10
2022-12-18T23:32:07.999Z,1.10
2022-12-18T23:34:34.753Z,1.20
2022-12-18T23:37:03.511Z,1.10
2022-12-18T23:39:30.518Z,1.10
2022-12-18T23:41:58.706Z,1.20
2022-12-18T23:44:25.851Z,1.10
2022-12-18T23:46:52.718Z,1.20
2022-12-18T23:49:19.507Z,1.20
2022-12-18T23:51:46.262Z,1.20
2022-12-18T23:54:12.974Z,1.10
2022-12-18T23:56:39.773Z,1.20
2022-12-18T23:59:06.694Z,1.30
